createdAt,value
2023-03-29T00:01:34.987Z,7.47
2023-03-29T00:04:04.929Z,6.63
2023-03-29T00:06:33.853Z,6.50
2023-03-29T00:09:05.554Z,7.30
2023-03-29T00:11:34.809Z,6.63
2023-03-29T00:14:02.317Z,7.95
2023-03-29T00:16:37.201Z,6.22
2023-03-29T00:19:06.651Z,7.13
2023-03-29T00:21:33.908Z,7.50
2023-03-29T00:24:02.347Z,7.28
2023-03-29T00:26:29.812Z,7.13
2023-03-29T00:28:58.441Z,8.15
2023-03-29T00:31:26.507Z,8.88
2023-03-29T00:33:59.857Z,8.45
2023-03-29T00:36:28.045Z,6.40
2023-03-29T00:38:56.827Z,7.38
2023-03-29T00:41:24.278Z,7.97
2023-03-29T00:44:02.793Z,6.70
2023-03-29T00:46:32.395Z,7.50
2023-03-29T00:49:15.694Z,7.07
2023-03-29T00:51:44.062Z,7.57
2023-03-29T00:54:18.957Z,6.95
2023-03-29T00:56:51.547Z,7.43
2023-03-29T00:59:33.014Z,7.28
2023-03-29T01:02:02.827Z,11.77
2023-03-29T01:04:36.563Z,8.30
2023-03-29T01:07:31.108Z,10.65
2023-03-29T01:10:09.512Z,9.85
2023-03-29T01:12:43.088Z,9.77
2023-03-29T01:15:20.315Z,8.35
2023-03-29T01:17:51.201Z,7.45
2023-03-29T01:20:46.429Z,7.80
2023-03-29T01:23:47.048Z,8.65
2023-03-29T01:26:30.709Z,7.43
2023-03-29T01:29:05.007Z,6.80
2023-03-29T01:31:39.042Z,7.50
2023-03-29T01:34:22.200Z,8.68
2023-03-29T01:37:04.754Z,7.70
2023-03-29T01:39:35.450Z,12.48
2023-03-29T01:42:24.668Z,15.35
2023-03-29T01:45:15.208Z,15.95
2023-03-29T01:47:58.582Z,12.00
2023-03-29T01:50:40.911Z,9.85
2023-03-29T01:53:18.356Z,7.88
2023-03-29T01:55:52.181Z,8.40
2023-03-29T01:58:24.226Z,9.88
2023-03-29T02:00:55.548Z,15.82
2023-03-29T02:03:27.452Z,13.60
2023-03-29T02:05:57.430Z,10.85
2023-03-29T02:08:31.356Z,8.43
2023-03-29T02:10:59.141Z,8.55
2023-03-29T02:13:27.649Z,8.43
2023-03-29T02:15:55.456Z,8.95
2023-03-29T02:18:24.054Z,8.18
2023-03-29T02:20:52.453Z,9.40
2023-03-29T02:23:23.731Z,8.20
2023-03-29T02:25:57.238Z,8.48
2023-03-29T02:28:26.460Z,8.88
2023-03-29T02:31:15.367Z,9.02
2023-03-29T02:34:01.598Z,8.35
2023-03-29T02:36:34.643Z,8.65
2023-03-29T02:41:33.078Z,9.75
2023-03-29T02:44:02.425Z,9.55
2023-03-29T02:46:38.169Z,10.10
2023-03-29T02:49:06.994Z,10.63
2023-03-29T02:51:36.968Z,11.10
2023-03-29T02:54:18.796Z,11.15
2023-03-29T02:56:49.488Z,10.55
2023-03-29T02:59:22.934Z,10.57
2023-03-29T03:01:50.692Z,12.25
2023-03-29T03:04:18.883Z,11.35
2023-03-29T03:06:45.936Z,11.48
2023-03-29T03:09:14.994Z,10.70
2023-03-29T03:11:42.525Z,11.40
2023-03-29T03:14:11.249Z,11.20
2023-03-29T03:16:39.257Z,10.63
2023-03-29T03:19:07.367Z,10.23
2023-03-29T03:21:40.766Z,10.05
2023-03-29T03:24:08.390Z,10.43
2023-03-29T03:26:36.273Z,9.80
2023-03-29T03:29:03.638Z,10.20
2023-03-29T03:31:31.299Z,10.50
2023-03-29T03:33:59.153Z,9.65
2023-03-29T03:36:31.889Z,9.40
2023-03-29T03:39:02.057Z,9.20
2023-03-29T03:41:29.605Z,11.13
2023-03-29T03:43:59.641Z,10.90
2023-03-29T03:46:29.695Z,10.05
2023-03-29T03:48:57.648Z,11.27
2023-03-29T03:51:25.091Z,19.17
2023-03-29T03:53:52.486Z,12.75
2023-03-29T03:56:21.998Z,10.82
2023-03-29T03:58:49.490Z,12.10
2023-03-29T04:01:17.475Z,11.65
2023-03-29T04:03:44.885Z,11.48
2023-03-29T04:06:12.485Z,11.50
2023-03-29T04:08:46.027Z,11.02
2023-03-29T04:11:13.472Z,12.52
2023-03-29T04:13:41.915Z,13.18
2023-03-29T04:16:09.547Z,11.02
2023-03-29T04:18:37.913Z,10.75
2023-03-29T04:21:05.703Z,10.63
2023-03-29T04:23:32.736Z,11.20
2023-03-29T04:26:00.206Z,19.42
2023-03-29T04:28:27.769Z,36.33
2023-03-29T04:30:57.152Z,19.35
2023-03-29T04:33:25.602Z,27.35
2023-03-29T04:35:54.116Z,16.80
2023-03-29T04:38:23.638Z,14.70
2023-03-29T04:40:51.675Z,21.67
2023-03-29T04:43:19.122Z,12.85
2023-03-29T04:45:46.428Z,14.45
2023-03-29T04:48:14.022Z,15.90
2023-03-29T04:50:41.830Z,15.90
2023-03-29T04:53:09.482Z,10.85
2023-03-29T04:55:36.864Z,12.07
2023-03-29T04:58:05.143Z,9.32
2023-03-29T05:00:32.290Z,9.90
2023-03-29T05:02:59.785Z,9.55
2023-03-29T05:05:27.320Z,9.32
2023-03-29T05:07:55.198Z,9.90
2023-03-29T05:10:23.760Z,9.93
2023-03-29T05:12:54.413Z,10.30
2023-03-29T05:15:22.382Z,10.23
2023-03-29T05:17:52.701Z,10.73
2023-03-29T05:20:22.512Z,9.75
2023-03-29T05:22:50.181Z,9.43
2023-03-29T05:25:19.880Z,7.95
2023-03-29T05:27:47.204Z,7.72
2023-03-29T05:30:15.704Z,8.25
2023-03-29T05:32:45.451Z,8.50
2023-03-29T05:35:12.772Z,8.13
2023-03-29T05:37:41.095Z,9.25
2023-03-29T05:40:10.647Z,9.20
2023-03-29T05:42:40.667Z,8.63
2023-03-29T05:45:09.651Z,7.68
2023-03-29T05:47:37.187Z,7.15
2023-03-29T05:50:05.063Z,7.80
2023-03-29T05:52:32.568Z,14.38
2023-03-29T05:54:59.907Z,47.47
2023-03-29T05:57:27.825Z,19.42
2023-03-29T05:59:55.421Z,13.50
2023-03-29T06:02:23.270Z,7.75
2023-03-29T06:04:52.152Z,6.22
2023-03-29T06:07:19.825Z,6.70
2023-03-29T06:09:47.971Z,7.05
2023-03-29T06:12:20.414Z,6.25
2023-03-29T06:14:50.822Z,5.85
2023-03-29T06:17:19.333Z,5.93
2023-03-29T06:19:48.768Z,5.30
2023-03-29T06:22:16.433Z,6.07
2023-03-29T06:24:43.725Z,5.55
2023-03-29T06:27:11.547Z,6.07
2023-03-29T06:29:38.583Z,5.72
2023-03-29T06:32:06.334Z,5.05
2023-03-29T06:34:33.453Z,5.18
2023-03-29T06:37:01.104Z,5.60
2023-03-29T06:39:28.442Z,5.65
2023-03-29T06:41:56.367Z,4.60
2023-03-29T06:44:23.991Z,4.40
2023-03-29T06:46:53.455Z,4.88
2023-03-29T06:49:22.789Z,5.07
2023-03-29T06:51:50.317Z,3.78
2023-03-29T06:54:20.012Z,3.92
2023-03-29T06:56:47.652Z,3.63
2023-03-29T06:59:14.784Z,4.00
2023-03-29T07:01:43.069Z,3.53
2023-03-29T07:04:11.454Z,3.63
2023-03-29T07:06:39.487Z,3.75
2023-03-29T07:09:13.210Z,3.90
2023-03-29T07:11:41.968Z,4.10
2023-03-29T07:14:10.040Z,4.15
2023-03-29T07:16:38.187Z,3.72
2023-03-29T07:19:05.828Z,3.15
2023-03-29T07:21:36.708Z,3.20
2023-03-29T07:24:07.058Z,3.88
2023-03-29T07:26:34.510Z,3.90
2023-03-29T07:29:01.753Z,3.85
2023-03-29T07:31:35.305Z,3.83
2023-03-29T07:34:06.890Z,4.35
2023-03-29T07:36:34.725Z,3.78
2023-03-29T07:39:02.258Z,2.67
2023-03-29T07:41:29.646Z,3.45
2023-03-29T07:43:57.387Z,3.33
2023-03-29T07:46:25.336Z,3.78
2023-03-29T07:48:52.572Z,3.53
2023-03-29T07:51:22.417Z,3.45
2023-03-29T07:53:50.162Z,3.58
2023-03-29T07:56:17.474Z,3.08
2023-03-29T07:58:46.926Z,3.00
2023-03-29T08:01:18.707Z,2.63
2023-03-29T08:03:48.745Z,2.53
2023-03-29T08:06:20.027Z,1.98
2023-03-29T08:08:47.748Z,2.78
2023-03-29T08:11:16.033Z,3.13
2023-03-29T08:13:44.711Z,3.05
2023-03-29T08:16:12.978Z,3.40
2023-03-29T08:18:40.520Z,1.67
2023-03-29T08:21:09.203Z,2.17
2023-03-29T08:23:37.508Z,2.67
2023-03-29T08:26:10.485Z,2.80
2023-03-29T08:28:40.024Z,2.03
2023-03-29T08:31:09.161Z,1.80
2023-03-29T08:33:37.586Z,1.90
2023-03-29T08:36:05.335Z,2.17
2023-03-29T08:38:32.894Z,2.50
2023-03-29T08:41:00.557Z,2.53
2023-03-29T08:43:35.335Z,3.55
2023-03-29T08:46:02.908Z,2.70
2023-03-29T08:48:54.035Z,2.50
2023-03-29T08:51:53.461Z,2.92
2023-03-29T08:54:34.353Z,2.22
2023-03-29T08:57:15.977Z,1.15
2023-03-29T08:59:45.858Z,2.03
2023-03-29T09:02:22.415Z,2.78
2023-03-29T09:04:53.291Z,1.60
2023-03-29T09:07:20.510Z,2.67
2023-03-29T09:09:50.723Z,1.95
2023-03-29T09:12:26.672Z,1.60
2023-03-29T09:15:15.683Z,2.05
2023-03-29T09:17:42.920Z,2.00
2023-03-29T09:20:12.988Z,1.33
2023-03-29T09:22:49.237Z,1.60
2023-03-29T09:25:53.400Z,1.70
2023-03-29T09:28:37.454Z,2.20
2023-03-29T09:31:37.560Z,2.17
2023-03-29T09:34:42.102Z,1.70
2023-03-29T09:37:22.918Z,1.90
2023-03-29T09:39:53.594Z,1.80
2023-03-29T09:42:22.200Z,1.75
2023-03-29T09:44:54.486Z,1.70
2023-03-29T09:47:45.394Z,1.90
2023-03-29T09:50:31.481Z,2.15
2023-03-29T09:52:59.377Z,1.90
2023-03-29T09:55:29.723Z,2.25
2023-03-29T09:58:12.643Z,1.95
2023-03-29T10:00:40.664Z,2.15
2023-03-29T10:03:10.626Z,2.00
2023-03-29T10:05:38.463Z,2.30
2023-03-29T10:08:19.582Z,2.50
2023-03-29T10:10:48.854Z,2.20
2023-03-29T10:13:31.009Z,2.40
2023-03-29T10:16:10.459Z,1.90
2023-03-29T10:18:42.828Z,2.30
2023-03-29T10:21:20.496Z,2.40
2023-03-29T10:23:49.682Z,2.95
2023-03-29T10:26:32.928Z,2.40
2023-03-29T10:29:03.620Z,2.70
2023-03-29T10:31:41.912Z,2.30
2023-03-29T10:34:14.355Z,2.70
2023-03-29T10:36:44.522Z,3.05
2023-03-29T10:39:16.715Z,2.55
2023-03-29T10:41:45.088Z,2.60
2023-03-29T10:44:33.264Z,2.58
2023-03-29T10:47:34.575Z,2.95
2023-03-29T10:50:06.009Z,2.90
2023-03-29T10:52:34.428Z,2.70
2023-03-29T10:55:01.971Z,2.70
2023-03-29T10:58:25.010Z,2.50
2023-03-29T11:00:58.686Z,2.60
2023-03-29T11:06:21.306Z,2.45
2023-03-29T11:08:59.810Z,2.65
2023-03-29T11:11:56.217Z,2.47
2023-03-29T11:14:57.387Z,2.08
2023-03-29T11:17:39.617Z,2.78
2023-03-29T11:20:22.614Z,2.88
2023-03-29T11:23:16.768Z,2.20
2023-03-29T11:28:53.350Z,2.40
2023-03-29T11:31:37.206Z,2.20
2023-03-29T11:34:34.232Z,2.60
2023-03-29T11:37:17.719Z,2.53
2023-03-29T11:39:50.788Z,2.22
2023-03-29T11:42:25.149Z,2.20
2023-03-29T11:44:56.086Z,2.25
2023-03-29T11:47:28.292Z,2.40
2023-03-29T11:50:01.184Z,2.10
2023-03-29T11:52:34.254Z,2.33
2023-03-29T11:55:15.779Z,2.53
2023-03-29T11:57:48.997Z,3.03
2023-03-29T12:00:39.332Z,2.15
2023-03-29T12:03:22.895Z,2.80
2023-03-29T12:06:12.645Z,17.70
2023-03-29T12:08:46.022Z,3.17
2023-03-29T12:11:29.239Z,2.42
2023-03-29T12:14:24.493Z,25.65
2023-03-29T12:17:03.497Z,2.30
2023-03-29T12:19:43.579Z,2.30
2023-03-29T12:22:11.322Z,2.47
2023-03-29T12:24:43.580Z,2.70
2023-03-29T12:27:57.899Z,2.22
2023-03-29T12:30:35.230Z,2.40
2023-03-29T12:33:33.033Z,2.40
2023-03-29T12:36:22.207Z,2.85
2023-03-29T12:38:53.072Z,2.70
2023-03-29T12:41:23.740Z,2.60
2023-03-29T12:43:51.472Z,2.67
2023-03-29T12:46:33.397Z,2.70
2023-03-29T12:49:15.247Z,2.88
2023-03-29T12:51:43.808Z,2.50
2023-03-29T12:54:16.933Z,2.33
2023-03-29T12:56:58.582Z,2.40
2023-03-29T12:59:38.547Z,2.63
2023-03-29T13:02:14.929Z,3.10
2023-03-29T13:04:43.886Z,2.78
2023-03-29T13:07:31.366Z,2.75
2023-03-29T13:10:10.090Z,2.83
2023-03-29T13:12:49.782Z,2.97
2023-03-29T13:15:20.313Z,2.85
2023-03-29T13:17:58.471Z,2.40
2023-03-29T13:21:01.076Z,3.03
2023-03-29T13:23:37.948Z,2.75
2023-03-29T13:26:27.427Z,3.20
2023-03-29T13:29:07.480Z,3.63
2023-03-29T13:31:41.578Z,2.95
2023-03-29T13:34:45.516Z,2.55
2023-03-29T13:37:37.794Z,2.80
2023-03-29T13:40:28.616Z,2.97
2023-03-29T13:43:21.973Z,2.80
2023-03-29T13:45:58.218Z,2.53
2023-03-29T13:48:33.853Z,2.58
2023-03-29T13:51:26.493Z,3.13
2023-03-29T13:54:02.596Z,2.58
2023-03-29T13:56:43.588Z,2.70
2023-03-29T13:59:20.352Z,3.03
2023-03-29T14:01:53.917Z,2.83
2023-03-29T14:04:47.114Z,2.67
2023-03-29T14:07:15.809Z,2.45
2023-03-29T14:09:50.094Z,2.40
2023-03-29T14:12:18.116Z,2.47
2023-03-29T14:14:58.329Z,2.50
2023-03-29T14:17:28.060Z,2.53
2023-03-29T14:20:00.817Z,2.97
2023-03-29T14:22:34.066Z,2.67
2023-03-29T14:25:14.408Z,2.22
2023-03-29T14:27:42.976Z,3.15
2023-03-29T14:30:23.587Z,2.78
2023-03-29T14:32:52.631Z,2.85
2023-03-29T14:35:27.522Z,2.58
2023-03-29T14:37:55.436Z,2.63
2023-03-29T14:40:23.949Z,2.40
2023-03-29T14:42:51.681Z,2.33
2023-03-29T14:45:23.572Z,2.72
2023-03-29T14:47:52.364Z,2.70
2023-03-29T14:50:26.510Z,2.40
2023-03-29T14:52:54.550Z,3.03
2023-03-29T14:55:24.226Z,2.97
2023-03-29T14:57:54.858Z,3.30
2023-03-29T15:00:30.361Z,3.28
2023-03-29T15:03:02.973Z,3.05
2023-03-29T15:05:39.206Z,2.83
2023-03-29T15:08:38.369Z,2.72
2023-03-29T15:11:24.291Z,3.78
2023-03-29T15:14:06.841Z,3.53
2023-03-29T15:16:41.016Z,3.63
2023-03-29T15:19:15.892Z,3.33
2023-03-29T15:21:48.209Z,3.83
2023-03-29T15:24:28.759Z,3.35
2023-03-29T15:27:03.764Z,3.65
2023-03-29T15:29:40.845Z,3.85
2023-03-29T15:32:10.003Z,4.00
2023-03-29T15:34:38.619Z,3.67
2023-03-29T15:37:07.892Z,4.15
2023-03-29T15:39:47.475Z,3.20
2023-03-29T15:42:14.994Z,4.28
2023-03-29T15:44:43.763Z,4.20
2023-03-29T15:47:12.370Z,4.63
2023-03-29T15:49:40.927Z,4.30
2023-03-29T15:52:08.475Z,4.55
2023-03-29T15:54:37.377Z,3.92
2023-03-29T15:57:07.957Z,3.58
2023-03-29T15:59:36.709Z,4.65
2023-03-29T16:02:04.684Z,4.50
2023-03-29T16:04:32.262Z,5.45
2023-03-29T16:06:59.707Z,3.90
2023-03-29T16:09:27.719Z,13.88
2023-03-29T16:11:55.489Z,3.15
2023-03-29T16:14:28.646Z,3.53
2023-03-29T16:16:59.208Z,4.32
2023-03-29T16:19:28.232Z,4.07
2023-03-29T16:21:58.059Z,4.47
2023-03-29T16:24:28.287Z,9.20
2023-03-29T16:26:56.690Z,12.95
2023-03-29T16:29:25.757Z,10.93
2023-03-29T16:31:54.211Z,7.32
2023-03-29T16:34:23.071Z,4.90
2023-03-29T16:36:53.354Z,4.70
2023-03-29T16:39:21.109Z,5.82
2023-03-29T16:41:50.536Z,5.47
2023-03-29T16:44:23.603Z,4.70
2023-03-29T16:46:58.293Z,4.53
2023-03-29T16:49:26.913Z,4.60
2023-03-29T16:51:54.610Z,3.60
2023-03-29T16:54:21.866Z,4.45
2023-03-29T16:56:51.045Z,3.75
2023-03-29T16:59:19.743Z,3.42
2023-03-29T17:01:47.408Z,3.10
2023-03-29T17:04:16.997Z,3.17
2023-03-29T17:06:44.295Z,3.30
2023-03-29T17:09:11.788Z,3.13
2023-03-29T17:11:39.798Z,3.70
2023-03-29T17:14:07.303Z,11.25
2023-03-29T17:16:34.687Z,48.58
2023-03-29T17:19:02.204Z,28.10
2023-03-29T17:21:31.072Z,20.63
2023-03-29T17:23:58.519Z,18.45
2023-03-29T17:26:27.325Z,9.98
2023-03-29T17:28:55.553Z,8.27
2023-03-29T17:31:22.883Z,6.43
2023-03-29T17:33:52.560Z,18.75
2023-03-29T17:36:24.354Z,24.05
2023-03-29T17:38:55.449Z,15.05
2023-03-29T17:41:23.200Z,19.00
2023-03-29T17:43:51.307Z,14.40
2023-03-29T17:46:23.178Z,12.70
2023-03-29T17:48:52.939Z,9.55
2023-03-29T17:51:23.888Z,14.15
2023-03-29T17:53:59.819Z,30.05
2023-03-29T17:56:29.284Z,27.08
2023-03-29T17:58:58.092Z,15.82
2023-03-29T18:01:26.081Z,14.80
2023-03-29T18:03:56.858Z,10.10
2023-03-29T18:06:31.116Z,6.82
2023-03-29T18:09:02.118Z,5.22
2023-03-29T18:11:29.956Z,7.25
2023-03-29T18:14:01.462Z,5.47
2023-03-29T18:16:29.598Z,5.00
2023-03-29T18:18:58.326Z,5.10
2023-03-29T18:21:27.774Z,5.18
2023-03-29T18:23:57.279Z,5.20
2023-03-29T18:26:27.714Z,5.30
2023-03-29T18:28:56.113Z,5.70
2023-03-29T18:31:24.193Z,6.20
2023-03-29T18:33:53.223Z,6.68
2023-03-29T18:36:21.445Z,6.70
2023-03-29T18:38:49.770Z,6.78
2023-03-29T18:41:18.873Z,6.40
2023-03-29T18:43:48.992Z,6.75
2023-03-29T18:46:18.668Z,6.85
2023-03-29T18:48:47.018Z,6.65
2023-03-29T18:51:16.913Z,6.80
2023-03-29T18:53:45.129Z,7.03
2023-03-29T18:56:13.628Z,7.18
2023-03-29T18:58:42.096Z,7.80
2023-03-29T19:01:11.421Z,7.15
2023-03-29T19:03:40.096Z,7.30
2023-03-29T19:06:08.576Z,7.55
2023-03-29T19:08:39.639Z,7.72
2023-03-29T19:11:11.105Z,7.45
2023-03-29T19:13:39.602Z,7.43
2023-03-29T19:16:08.977Z,7.10
2023-03-29T19:18:43.908Z,7.70
2023-03-29T19:21:14.239Z,7.70
2023-03-29T19:23:42.927Z,8.02
2023-03-29T19:26:12.407Z,8.10
2023-03-29T19:28:41.831Z,7.07
2023-03-29T19:31:10.222Z,7.10
2023-03-29T19:33:40.367Z,7.30
2023-03-29T19:36:14.372Z,6.70
2023-03-29T19:38:47.714Z,7.38
2023-03-29T19:41:17.497Z,6.45
2023-03-29T19:43:46.133Z,6.88
2023-03-29T19:46:16.432Z,6.15
2023-03-29T19:48:45.673Z,7.25
2023-03-29T19:51:13.733Z,6.15
2023-03-29T19:53:41.982Z,6.32
2023-03-29T19:56:11.343Z,6.35
2023-03-29T19:58:40.114Z,5.38
2023-03-29T20:01:08.303Z,5.40
2023-03-29T20:03:36.578Z,5.88
2023-03-29T20:06:04.862Z,6.32
2023-03-29T20:08:32.636Z,6.03
2023-03-29T20:11:03.333Z,5.97
2023-03-29T20:13:38.851Z,5.55
2023-03-29T20:16:08.535Z,5.15
2023-03-29T20:18:38.603Z,5.93
2023-03-29T20:21:10.191Z,5.90
2023-03-29T20:23:38.103Z,5.20
2023-03-29T20:26:07.989Z,5.40
2023-03-29T20:28:38.194Z,5.75
2023-03-29T20:31:08.281Z,5.63
2023-03-29T20:33:36.505Z,5.53
2023-03-29T20:36:07.096Z,5.72
2023-03-29T20:38:36.132Z,6.15
2023-03-29T20:41:05.991Z,6.22
2023-03-29T20:43:38.157Z,5.93
2023-03-29T20:46:14.802Z,5.68
2023-03-29T20:48:54.647Z,5.30
2023-03-29T20:51:28.406Z,5.90
2023-03-29T20:54:02.923Z,6.38
2023-03-29T20:56:39.109Z,5.32
2023-03-29T20:59:11.089Z,5.65
2023-03-29T21:01:41.204Z,5.57
2023-03-29T21:04:11.149Z,5.45
2023-03-29T21:06:41.573Z,5.07
2023-03-29T21:09:10.045Z,6.60
2023-03-29T21:11:38.809Z,5.50
2023-03-29T21:14:06.422Z,4.60
2023-03-29T21:16:34.892Z,5.45
2023-03-29T21:19:02.389Z,5.60
2023-03-29T21:21:29.985Z,4.65
2023-03-29T21:23:57.329Z,4.70
2023-03-29T21:26:24.766Z,4.38
2023-03-29T21:28:52.431Z,4.82
2023-03-29T21:31:19.736Z,4.85
2023-03-29T21:33:47.042Z,4.47
2023-03-29T21:36:14.580Z,4.65
2023-03-29T21:38:41.892Z,4.72
2023-03-29T21:41:12.884Z,4.63
2023-03-29T21:43:40.323Z,4.85
2023-03-29T21:46:08.321Z,4.72
2023-03-29T21:48:36.411Z,4.78
2023-03-29T21:51:05.756Z,4.13
2023-03-29T21:53:33.404Z,5.03
2023-03-29T21:56:00.986Z,4.38
2023-03-29T21:58:29.307Z,5.13
2023-03-29T22:01:08.310Z,4.28
2023-03-29T22:03:38.231Z,4.22
2023-03-29T22:06:10.803Z,4.45
2023-03-29T22:08:46.923Z,4.10
2023-03-29T22:11:20.757Z,4.72
2023-03-29T22:13:48.321Z,4.68
2023-03-29T22:16:18.546Z,4.05
2023-03-29T22:18:53.004Z,4.65
2023-03-29T22:21:25.554Z,4.22
2023-03-29T22:23:55.682Z,4.35
2023-03-29T22:26:30.010Z,4.50
2023-03-29T22:28:58.875Z,4.22
2023-03-29T22:31:27.524Z,4.70
2023-03-29T22:33:56.008Z,4.25
2023-03-29T22:36:27.200Z,4.22
2023-03-29T22:38:55.134Z,4.30
2023-03-29T22:41:26.366Z,4.25
2023-03-29T22:43:56.128Z,4.65
2023-03-29T22:46:24.311Z,4.07
2023-03-29T22:48:52.635Z,4.60
2023-03-29T22:51:20.703Z,4.22
2023-03-29T22:53:48.620Z,4.50
2023-03-29T22:56:17.078Z,4.25
2023-03-29T22:58:46.238Z,4.43
2023-03-29T23:01:14.843Z,4.35
2023-03-29T23:03:43.155Z,4.38
2023-03-29T23:06:13.574Z,3.95
2023-03-29T23:08:42.069Z,4.38
2023-03-29T23:11:09.480Z,4.72
2023-03-29T23:13:37.079Z,4.70
2023-03-29T23:16:05.144Z,4.53
2023-03-29T23:18:35.104Z,4.82
2023-03-29T23:21:02.854Z,4.75
2023-03-29T23:23:30.430Z,4.60
2023-03-29T23:25:58.236Z,4.50
2023-03-29T23:28:30.744Z,5.53
2023-03-29T23:31:10.795Z,4.77
2023-03-29T23:33:44.314Z,5.25
2023-03-29T23:36:15.024Z,4.80
2023-03-29T23:38:44.094Z,5.60
2023-03-29T23:41:13.161Z,5.55
2023-03-29T23:43:43.806Z,5.40
2023-03-29T23:46:14.434Z,4.72
2023-03-29T23:48:46.266Z,4.75
2023-03-29T23:51:14.448Z,4.70
2023-03-29T23:53:42.829Z,4.47
2023-03-29T23:56:12.142Z,4.75
2023-03-29T23:58:40.471Z,5.22
